createdAt,value
2022-10-05T00:02:36.650Z,9.10
2022-10-05T00:05:38.834Z,9.10
2022-10-05T00:08:40.547Z,9.10
2022-10-05T00:11:42.811Z,9.10
2022-10-05T00:14:46.203Z,9.10
2022-10-05T00:17:47.864Z,9.10
2022-10-05T00:20:49.459Z,9.10
2022-10-05T00:23:52.119Z,9.00
2022-10-05T00:26:57.735Z,9.00
2022-10-05T00:30:07.742Z,9.00
2022-10-05T00:33:09.367Z,8.90
2022-10-05T00:36:11.151Z,8.90
2022-10-05T00:39:12.797Z,8.80
2022-10-05T00:42:22.084Z,8.70
2022-10-05T00:45:51.389Z,8.70
2022-10-05T00:49:24.740Z,8.60
2022-10-05T00:52:45.532Z,8.60
2022-10-05T00:55:53.302Z,8.60
2022-10-05T00:59:20.542Z,8.60
2022-10-05T01:02:46.630Z,8.50
2022-10-05T01:06:16.354Z,8.60
2022-10-05T01:09:44.831Z,8.50
2022-10-05T01:12:58.336Z,8.50
2022-10-05T01:16:07.453Z,8.50
2022-10-05T01:19:21.429Z,8.50
2022-10-05T01:22:57.959Z,8.50
2022-10-05T01:26:44.120Z,8.50
2022-10-05T01:29:59.891Z,8.50
2022-10-05T01:33:20.137Z,8.40
2022-10-05T01:36:52.572Z,8.40
2022-10-05T01:40:15.563Z,8.30
2022-10-05T01:43:55.874Z,8.30
2022-10-05T01:47:21.426Z,8.30
2022-10-05T01:50:37.221Z,8.30
2022-10-05T01:54:22.353Z,8.10
2022-10-05T01:57:46.050Z,8.10
2022-10-05T02:00:56.530Z,8.10
2022-10-05T02:04:43.602Z,8.10
2022-10-05T02:07:58.601Z,8.00
2022-10-05T02:11:07.514Z,8.00
2022-10-05T02:14:15.089Z,8.00
2022-10-05T02:17:27.445Z,8.00
2022-10-05T02:20:32.330Z,8.10
2022-10-05T02:23:38.347Z,8.20
2022-10-05T02:26:41.467Z,8.20
2022-10-05T02:29:47.692Z,8.20
2022-10-05T02:33:32.396Z,8.20
2022-10-05T02:36:36.305Z,8.20
2022-10-05T02:40:04.780Z,8.20
2022-10-05T02:43:27.755Z,8.20
2022-10-05T02:46:58.081Z,8.20
2022-10-05T02:50:27.038Z,8.20
2022-10-05T02:53:47.330Z,8.10
2022-10-05T02:57:07.892Z,8.10
2022-10-05T03:00:14.373Z,8.10
2022-10-05T03:03:31.969Z,8.10
2022-10-05T03:06:42.175Z,8.10
2022-10-05T03:10:02.665Z,8.10
2022-10-05T03:13:21.701Z,8.10
2022-10-05T03:16:58.187Z,8.20
2022-10-05T03:20:31.267Z,8.30
2022-10-05T03:24:01.612Z,8.40
2022-10-05T03:27:22.805Z,8.40
2022-10-05T03:30:26.541Z,8.40
2022-10-05T03:33:34.716Z,8.50
2022-10-05T03:36:54.648Z,8.50
2022-10-05T03:40:22.398Z,8.40
2022-10-05T03:43:52.313Z,8.40
2022-10-05T03:47:18.996Z,8.40
2022-10-05T03:50:51.665Z,8.40
2022-10-05T03:53:59.780Z,8.40
2022-10-05T03:57:16.826Z,8.40
2022-10-05T04:00:25.554Z,8.40
2022-10-05T04:03:32.690Z,8.40
2022-10-05T04:06:38.440Z,8.50
2022-10-05T04:09:45.555Z,8.50
2022-10-05T04:12:52.326Z,8.60
2022-10-05T04:15:57.202Z,8.60
2022-10-05T04:19:32.561Z,8.60
2022-10-05T04:22:42.826Z,8.70
2022-10-05T04:25:56.440Z,8.80
2022-10-05T04:29:35.430Z,8.80
2022-10-05T04:32:45.014Z,8.90
2022-10-05T04:36:09.545Z,9.00
2022-10-05T04:39:50.562Z,9.00
2022-10-05T04:43:16.627Z,9.10
2022-10-05T04:46:39.612Z,9.10
2022-10-05T04:49:55.940Z,9.10
2022-10-05T04:53:17.584Z,9.10
2022-10-05T04:56:26.107Z,9.10
2022-10-05T04:59:51.527Z,9.10
2022-10-05T05:03:21.475Z,9.20
2022-10-05T05:06:28.911Z,9.20
2022-10-05T05:09:54.731Z,9.20
2022-10-05T05:13:10.345Z,9.30
2022-10-05T05:16:37.127Z,9.30
2022-10-05T05:19:39.112Z,9.30
2022-10-05T05:22:45.910Z,9.30
2022-10-05T05:26:22.771Z,9.30
2022-10-05T05:30:09.040Z,9.40
2022-10-05T05:33:33.483Z,9.40
2022-10-05T05:37:01.462Z,9.40
2022-10-05T05:40:21.818Z,9.30
2022-10-05T05:43:53.327Z,9.40
2022-10-05T05:47:19.495Z,9.40
2022-10-05T05:50:53.309Z,9.40
2022-10-05T05:53:59.530Z,9.40
2022-10-05T05:57:21.796Z,9.50
2022-10-05T06:00:26.275Z,9.50
2022-10-05T06:03:37.417Z,9.50
2022-10-05T06:06:44.795Z,9.50
2022-10-05T06:10:15.660Z,9.60
2022-10-05T06:13:26.700Z,9.60
2022-10-05T06:16:41.874Z,9.70
2022-10-05T06:19:45.825Z,9.70
2022-10-05T06:22:49.920Z,9.80
2022-10-05T06:26:39.759Z,9.90
2022-10-05T06:30:03.523Z,9.90
2022-10-05T06:33:19.298Z,10.00
2022-10-05T06:36:39.851Z,10.00
2022-10-05T06:40:12.582Z,10.10
2022-10-05T06:43:51.653Z,10.10
2022-10-05T06:47:18.153Z,10.10
2022-10-05T06:50:52.691Z,10.20
2022-10-05T06:54:27.244Z,10.20
2022-10-05T06:57:47.767Z,10.30
2022-10-05T07:00:55.974Z,10.40
2022-10-05T07:04:04.308Z,10.40
2022-10-05T07:07:23.158Z,10.60
2022-10-05T07:10:59.981Z,10.60
2022-10-05T07:14:25.760Z,10.80
2022-10-05T07:17:52.465Z,10.90
2022-10-05T07:21:19.091Z,11.00
2022-10-05T07:24:36.609Z,10.90
2022-10-05T07:27:51.761Z,10.90
2022-10-05T07:31:00.463Z,10.90
2022-10-05T07:34:14.220Z,11.00
2022-10-05T07:37:57.387Z,11.10
2022-10-05T07:41:11.816Z,11.20
2022-10-05T07:44:38.387Z,11.30
2022-10-05T07:47:51.024Z,11.30
2022-10-05T07:51:18.965Z,11.40
2022-10-05T07:54:42.492Z,11.60
2022-10-05T07:58:02.279Z,11.80
2022-10-05T08:01:24.866Z,11.90
2022-10-05T08:04:39.427Z,12.10
2022-10-05T08:07:43.579Z,12.10
2022-10-05T08:11:09.393Z,12.30
2022-10-05T08:14:22.071Z,12.50
2022-10-05T08:17:42.510Z,12.40
2022-10-05T08:20:52.973Z,12.60
2022-10-05T08:23:58.079Z,12.70
2022-10-05T08:27:22.027Z,12.70
2022-10-05T08:30:24.557Z,12.70
2022-10-05T08:33:27.835Z,12.70
2022-10-05T08:36:51.622Z,12.60
2022-10-05T08:40:33.677Z,12.60
2022-10-05T08:44:21.239Z,12.50
2022-10-05T08:47:39.636Z,12.60
2022-10-05T08:51:32.628Z,12.70
2022-10-05T08:54:38.485Z,12.80
2022-10-05T08:58:17.743Z,12.90
2022-10-05T09:01:31.405Z,13.10
2022-10-05T09:05:08.610Z,13.30
2022-10-05T09:08:49.454Z,13.40
2022-10-05T09:12:17.096Z,13.40
2022-10-05T09:15:56.417Z,13.50
2022-10-05T09:19:07.191Z,13.60
2022-10-05T09:22:28.308Z,13.70
2022-10-05T09:25:44.819Z,13.80
2022-10-05T09:29:04.966Z,13.70
2022-10-05T09:32:53.165Z,13.80
2022-10-05T09:36:32.357Z,13.90
2022-10-05T09:40:11.537Z,14.00
2022-10-05T09:43:29.640Z,14.20
2022-10-05T09:46:52.961Z,14.30
2022-10-05T09:50:37.820Z,14.30
2022-10-05T09:54:03.382Z,14.30
2022-10-05T09:57:23.011Z,14.40
2022-10-05T10:01:03.878Z,14.50
2022-10-05T10:04:38.327Z,14.60
2022-10-05T10:08:24.404Z,14.70
2022-10-05T10:11:54.479Z,14.90
2022-10-05T10:15:20.984Z,15.10
2022-10-05T10:18:45.880Z,15.30
2022-10-05T10:22:09.370Z,15.50
2022-10-05T10:25:53.795Z,15.70
2022-10-05T10:29:15.090Z,16.00
2022-10-05T10:32:33.144Z,16.30
2022-10-05T10:35:55.423Z,16.40
2022-10-05T10:39:02.471Z,16.50
2022-10-05T10:42:43.450Z,16.60
2022-10-05T10:45:59.030Z,16.90
2022-10-05T10:49:20.387Z,17.00
2022-10-05T10:52:28.261Z,17.20
2022-10-05T10:55:47.406Z,17.10
2022-10-05T10:59:06.822Z,17.10
2022-10-05T11:02:44.275Z,17.20
2022-10-05T11:06:12.261Z,17.30
2022-10-05T11:09:35.526Z,17.30
2022-10-05T11:12:58.045Z,17.40
2022-10-05T11:16:18.766Z,17.60
2022-10-05T11:20:05.370Z,17.90
2022-10-05T11:23:29.628Z,18.20
2022-10-05T11:26:55.671Z,18.30
2022-10-05T11:30:11.583Z,18.70
2022-10-05T11:33:34.839Z,19.00
2022-10-05T11:36:55.367Z,19.20
2022-10-05T11:40:16.613Z,19.20
2022-10-05T11:43:33.372Z,19.40
2022-10-05T11:47:12.546Z,19.40
2022-10-05T11:50:21.228Z,19.10
2022-10-05T11:53:41.351Z,19.20
2022-10-05T11:57:02.806Z,19.20
2022-10-05T12:00:21.704Z,19.40
2022-10-05T12:03:36.510Z,19.50
2022-10-05T12:07:02.765Z,19.50
2022-10-05T12:10:31.025Z,19.50
2022-10-05T12:14:02.812Z,19.40
2022-10-05T12:17:27.165Z,19.60
2022-10-05T12:20:37.875Z,19.70
2022-10-05T12:23:54.713Z,19.70
2022-10-05T12:27:01.277Z,19.70
2022-10-05T12:30:18.412Z,19.70
2022-10-05T12:33:26.675Z,19.80
2022-10-05T12:37:05.990Z,19.80
2022-10-05T12:40:10.745Z,19.80
2022-10-05T12:43:40.357Z,19.90
2022-10-05T12:46:51.408Z,20.10
2022-10-05T12:50:19.268Z,20.10
2022-10-05T12:53:32.752Z,20.10
2022-10-05T12:56:44.466Z,20.20
2022-10-05T13:00:10.687Z,20.30
2022-10-05T13:03:26.373Z,20.50
2022-10-05T13:06:44.410Z,20.70
2022-10-05T13:10:02.603Z,20.70
2022-10-05T13:13:14.508Z,20.70
2022-10-05T13:16:56.433Z,20.80
2022-10-05T13:20:02.362Z,20.80
2022-10-05T13:23:22.858Z,20.80
2022-10-05T13:26:46.050Z,20.80
2022-10-05T13:30:12.038Z,20.80
2022-10-05T13:33:24.470Z,20.90
2022-10-05T13:36:38.280Z,21.00
2022-10-05T13:40:01.555Z,21.10
2022-10-05T13:43:21.224Z,20.90
2022-10-05T13:46:49.332Z,21.00
2022-10-05T13:50:05.560Z,21.10
2022-10-05T13:53:12.959Z,21.30
2022-10-05T13:56:31.458Z,21.40
2022-10-05T13:59:51.082Z,21.50
2022-10-05T14:02:56.143Z,21.70
2022-10-05T14:06:01.299Z,21.80
2022-10-05T14:09:03.698Z,21.90
2022-10-05T14:12:05.224Z,21.80
2022-10-05T14:15:41.979Z,21.80
2022-10-05T14:18:56.481Z,21.70
2022-10-05T14:22:10.972Z,21.70
2022-10-05T14:25:17.963Z,21.70
2022-10-05T14:28:38.300Z,21.80
2022-10-05T14:31:49.813Z,22.00
2022-10-05T14:35:05.129Z,22.00
2022-10-05T14:38:29.341Z,22.00
2022-10-05T14:41:36.213Z,21.90
2022-10-05T14:44:37.844Z,21.90
2022-10-05T14:47:53.380Z,22.00
2022-10-05T14:50:57.910Z,22.00
2022-10-05T14:54:01.483Z,22.10
2022-10-05T14:57:25.555Z,22.20
2022-10-05T15:00:28.960Z,22.20
2022-10-05T15:03:42.140Z,22.20
2022-10-05T15:06:55.522Z,22.30
2022-10-05T15:10:26.797Z,22.40
2022-10-05T15:13:32.706Z,22.40
2022-10-05T15:16:38.917Z,22.40
2022-10-05T15:19:47.502Z,22.30
2022-10-05T15:23:26.884Z,22.40
2022-10-05T15:26:36.109Z,22.40
2022-10-05T15:30:09.104Z,22.40
2022-10-05T15:33:38.218Z,22.40
2022-10-05T15:36:52.675Z,22.50
2022-10-05T15:40:03.555Z,22.50
2022-10-05T15:43:12.510Z,22.50
2022-10-05T15:46:36.009Z,22.40
2022-10-05T15:49:57.117Z,22.40
2022-10-05T15:53:23.116Z,22.40
2022-10-05T15:56:38.336Z,22.40
2022-10-05T15:59:56.397Z,22.30
2022-10-05T16:03:12.406Z,22.20
2022-10-05T16:06:51.545Z,22.00
2022-10-05T16:10:17.187Z,21.90
2022-10-05T16:13:38.619Z,21.70
2022-10-05T16:16:43.001Z,21.50
2022-10-05T16:20:14.515Z,21.40
2022-10-05T16:23:40.757Z,21.30
2022-10-05T16:26:54.097Z,21.10
2022-10-05T16:30:13.493Z,21.00
2022-10-05T16:33:29.151Z,20.90
2022-10-05T16:36:47.838Z,20.70
2022-10-05T16:40:01.245Z,20.60
2022-10-05T16:43:32.123Z,20.50
2022-10-05T16:46:45.879Z,20.30
2022-10-05T16:50:01.627Z,20.20
2022-10-05T16:53:17.331Z,20.00
2022-10-05T16:56:25.189Z,19.90
2022-10-05T16:59:42.232Z,19.80
2022-10-05T17:03:27.265Z,19.70
2022-10-05T17:06:43.988Z,19.60
2022-10-05T17:10:08.090Z,19.40
2022-10-05T17:13:31.279Z,19.30
2022-10-05T17:16:52.494Z,19.10
2022-10-05T17:20:23.497Z,19.00
2022-10-05T17:23:53.662Z,18.80
2022-10-05T17:27:33.779Z,18.70
2022-10-05T17:31:06.332Z,18.60
2022-10-05T17:34:38.580Z,18.50
2022-10-05T17:38:05.280Z,18.40
2022-10-05T17:41:17.484Z,18.30
2022-10-05T17:44:21.719Z,18.30
2022-10-05T17:47:58.510Z,18.30
2022-10-05T17:51:18.645Z,18.30
2022-10-05T17:54:41.843Z,18.30
2022-10-05T17:57:43.877Z,18.30
2022-10-05T18:00:57.632Z,18.30
2022-10-05T18:04:11.253Z,18.20
2022-10-05T18:07:22.582Z,18.20
2022-10-05T18:10:28.724Z,18.20
2022-10-05T18:14:19.547Z,18.20
2022-10-05T18:17:47.324Z,18.10
2022-10-05T18:21:24.076Z,18.10
2022-10-05T18:25:04.211Z,18.00
2022-10-05T18:28:35.967Z,18.00
2022-10-05T18:31:46.992Z,17.90
2022-10-05T18:35:11.654Z,17.80
2022-10-05T18:38:34.231Z,17.80
2022-10-05T18:41:54.883Z,17.70
2022-10-05T18:45:11.094Z,17.60
2022-10-05T18:48:36.377Z,17.50
2022-10-05T18:51:58.773Z,17.50
2022-10-05T18:55:20.199Z,17.50
2022-10-05T18:59:11.062Z,17.60
2022-10-05T19:02:24.029Z,17.70
2022-10-05T19:05:54.157Z,17.70
2022-10-05T19:09:06.034Z,17.80
2022-10-05T19:12:29.562Z,17.80
2022-10-05T19:15:58.994Z,17.80
2022-10-05T19:19:29.383Z,17.80
2022-10-05T19:22:55.829Z,17.80
2022-10-05T19:26:02.531Z,17.80
2022-10-05T19:29:12.985Z,17.70
2022-10-05T19:32:33.392Z,17.70
2022-10-05T19:36:00.871Z,17.70
2022-10-05T19:39:40.116Z,17.60
2022-10-05T19:43:26.827Z,17.60
2022-10-05T19:46:30.606Z,17.60
2022-10-05T19:49:48.770Z,17.50
2022-10-05T19:52:57.202Z,17.40
2022-10-05T19:56:21.342Z,17.40
2022-10-05T19:59:28.033Z,17.30
2022-10-05T20:02:32.464Z,17.30
2022-10-05T20:05:34.385Z,17.30
2022-10-05T20:08:44.741Z,17.20
2022-10-05T20:11:51.402Z,17.20
2022-10-05T20:15:26.438Z,17.20
2022-10-05T20:19:30.202Z,17.10
2022-10-05T20:22:49.039Z,17.10
2022-10-05T20:26:12.798Z,17.00
2022-10-05T20:29:14.458Z,17.00
2022-10-05T20:32:20.787Z,16.90
2022-10-05T20:35:22.884Z,16.80
2022-10-05T20:38:24.784Z,16.70
2022-10-05T20:41:30.245Z,16.60
2022-10-05T20:44:32.012Z,16.60
2022-10-05T20:47:33.719Z,16.50
2022-10-05T20:50:36.992Z,16.40
2022-10-05T20:53:38.727Z,16.30
2022-10-05T20:56:42.492Z,16.40
2022-10-05T20:59:44.489Z,16.40
2022-10-05T21:02:46.844Z,16.50
2022-10-05T21:05:48.441Z,16.50
2022-10-05T21:08:54.414Z,16.50
2022-10-05T21:11:56.076Z,16.60
2022-10-05T21:14:59.757Z,16.70
2022-10-05T21:18:01.356Z,16.60
2022-10-05T21:21:02.993Z,16.60
2022-10-05T21:24:05.502Z,16.60
2022-10-05T21:27:08.082Z,16.60
2022-10-05T21:30:10.010Z,16.60
2022-10-05T21:33:11.704Z,16.70
2022-10-05T21:36:14.573Z,16.80
2022-10-05T21:39:16.462Z,16.80
2022-10-05T21:42:20.007Z,16.80
2022-10-05T21:45:25.236Z,16.80
2022-10-05T21:48:27.581Z,16.70
2022-10-05T21:51:29.501Z,16.70
2022-10-05T21:54:32.557Z,16.60
2022-10-05T21:57:35.505Z,16.70
2022-10-05T22:00:37.174Z,16.70
2022-10-05T22:03:38.871Z,16.80
2022-10-05T22:06:40.503Z,16.70
2022-10-05T22:09:42.206Z,16.70
2022-10-05T22:12:46.216Z,16.80
2022-10-05T22:15:47.822Z,16.70
2022-10-05T22:18:50.108Z,16.70
2022-10-05T22:21:51.695Z,16.70
2022-10-05T22:24:54.005Z,16.70
2022-10-05T22:27:55.799Z,16.60
2022-10-05T22:30:59.484Z,16.60
2022-10-05T22:34:01.141Z,16.50
2022-10-05T22:37:04.090Z,16.50
2022-10-05T22:40:07.460Z,16.40
2022-10-05T22:43:09.044Z,16.40
2022-10-05T22:46:15.462Z,16.40
2022-10-05T22:49:17.306Z,16.30
2022-10-05T22:52:18.987Z,16.30
2022-10-05T22:55:21.039Z,16.30
2022-10-05T22:58:22.732Z,16.20
2022-10-05T23:01:24.511Z,16.10
2022-10-05T23:04:26.497Z,16.10
2022-10-05T23:07:28.318Z,16.00
2022-10-05T23:10:29.983Z,15.90
2022-10-05T23:13:32.861Z,15.90
2022-10-05T23:16:34.539Z,15.80
2022-10-05T23:19:38.878Z,15.70
2022-10-05T23:22:40.591Z,15.70
2022-10-05T23:25:42.355Z,15.60
2022-10-05T23:28:47.915Z,15.60
2022-10-05T23:31:49.610Z,15.50
2022-10-05T23:34:51.284Z,15.50
2022-10-05T23:37:53.000Z,15.50
2022-10-05T23:40:55.987Z,15.50
2022-10-05T23:43:57.602Z,15.40
2022-10-05T23:46:59.187Z,15.30
2022-10-05T23:50:00.951Z,15.40
2022-10-05T23:53:02.633Z,15.40
2022-10-05T23:56:04.774Z,15.40
2022-10-05T23:59:06.379Z,15.30
